createdAt,value
2023-04-13T00:01:58.078Z,4.57
2023-04-13T00:05:25.346Z,4.45
2023-04-13T00:07:56.968Z,4.35
2023-04-13T00:10:24.355Z,4.35
2023-04-13T00:12:51.645Z,4.28
2023-04-13T00:15:29.372Z,4.37
2023-04-13T00:18:15.121Z,4.44
2023-04-13T00:21:03.918Z,4.34
2023-04-13T00:23:43.376Z,4.33
2023-04-13T00:26:11.428Z,4.35
2023-04-13T00:28:43.523Z,4.37
2023-04-13T00:31:24.137Z,4.37
2023-04-13T00:33:51.720Z,4.30
2023-04-13T00:36:19.179Z,4.29
2023-04-13T00:38:58.066Z,4.31
2023-04-13T00:42:09.349Z,4.21
2023-04-13T00:44:36.651Z,4.04
2023-04-13T00:47:17.970Z,4.00
2023-04-13T00:50:17.559Z,4.04
2023-04-13T00:53:05.505Z,4.04
2023-04-13T00:55:34.899Z,4.05
2023-04-13T00:58:02.484Z,4.03
2023-04-13T01:00:33.681Z,3.95
2023-04-13T01:03:02.218Z,3.97
2023-04-13T01:05:41.233Z,3.91
2023-04-13T01:08:26.118Z,3.92
2023-04-13T01:11:19.513Z,3.92
2023-04-13T01:13:53.356Z,3.74
2023-04-13T01:16:45.575Z,3.73
2023-04-13T01:19:54.222Z,3.60
2023-04-13T01:22:35.903Z,3.46
2023-04-13T01:25:46.526Z,3.46
2023-04-13T01:28:22.820Z,3.50
2023-04-13T01:30:52.699Z,3.34
2023-04-13T01:33:22.034Z,3.28
2023-04-13T01:35:50.968Z,3.32
2023-04-13T01:38:24.709Z,3.19
2023-04-13T01:40:52.864Z,3.16
2023-04-13T01:43:21.399Z,3.13
2023-04-13T01:46:06.860Z,3.23
2023-04-13T01:48:43.144Z,3.28
2023-04-13T01:51:25.060Z,3.26
2023-04-13T01:54:24.631Z,3.08
2023-04-13T01:56:57.649Z,3.07
2023-04-13T02:05:00.483Z,3.01
2023-04-13T02:08:08.060Z,3.04
2023-04-13T02:10:38.183Z,3.04
2023-04-13T02:13:06.961Z,3.00
2023-04-13T02:15:45.042Z,2.95
2023-04-13T02:18:13.761Z,2.93
2023-04-13T02:20:45.441Z,2.85
2023-04-13T02:23:18.725Z,2.88
2023-04-13T02:25:51.431Z,2.89
2023-04-13T02:28:21.922Z,2.95
2023-04-13T02:30:49.309Z,2.85
2023-04-13T02:33:32.997Z,2.85
2023-04-13T02:36:02.883Z,2.73
2023-04-13T02:38:35.017Z,2.68
2023-04-13T02:41:05.161Z,2.70
2023-04-13T02:43:36.965Z,2.71
2023-04-13T02:46:04.857Z,2.70
2023-04-13T02:48:38.295Z,2.64
2023-04-13T02:51:06.398Z,2.64
2023-04-13T02:53:36.372Z,2.54
2023-04-13T02:56:08.381Z,2.44
2023-04-13T02:58:38.959Z,2.28
2023-04-13T03:01:22.505Z,2.31
2023-04-13T03:03:50.840Z,2.16
2023-04-13T03:06:21.175Z,2.10
2023-04-13T03:08:52.364Z,2.14
2023-04-13T03:11:21.338Z,2.21
2023-04-13T03:13:48.708Z,2.28
2023-04-13T03:16:16.062Z,2.27
2023-04-13T03:18:42.825Z,2.31
2023-04-13T03:21:09.567Z,2.28
2023-04-13T03:23:46.593Z,2.26
2023-04-13T03:26:14.118Z,2.20
2023-04-13T03:28:50.445Z,2.13
2023-04-13T03:31:18.456Z,2.13
2023-04-13T03:33:55.362Z,2.14
2023-04-13T03:36:25.513Z,2.07
2023-04-13T03:38:52.198Z,2.09
2023-04-13T03:41:19.333Z,2.21
2023-04-13T03:43:46.265Z,2.16
2023-04-13T03:46:16.185Z,2.19
2023-04-13T03:48:43.750Z,2.14
2023-04-13T03:51:10.584Z,2.13
2023-04-13T03:53:38.258Z,2.17
2023-04-13T03:56:05.769Z,2.16
2023-04-13T03:58:33.214Z,2.15
2023-04-13T04:01:00.034Z,2.24
2023-04-13T04:03:27.331Z,2.20
2023-04-13T04:05:56.989Z,2.20
2023-04-13T04:08:23.799Z,2.26
2023-04-13T04:10:50.964Z,2.21
2023-04-13T04:13:19.903Z,2.24
2023-04-13T04:15:50.042Z,2.23
2023-04-13T04:18:16.955Z,2.18
2023-04-13T04:20:43.725Z,2.19
2023-04-13T04:23:12.581Z,2.22
2023-04-13T04:25:42.388Z,2.23
2023-04-13T04:28:09.117Z,2.36
2023-04-13T04:30:35.987Z,2.40
2023-04-13T04:33:08.733Z,2.47
2023-04-13T04:35:35.554Z,2.55
2023-04-13T04:38:06.690Z,2.65
2023-04-13T04:40:36.682Z,2.69
2023-04-13T04:43:05.254Z,2.72
2023-04-13T04:45:33.575Z,2.79
2023-04-13T04:48:00.750Z,2.94
2023-04-13T04:50:30.832Z,3.07
2023-04-13T04:52:57.798Z,3.11
2023-04-13T04:55:31.758Z,3.25
2023-04-13T04:57:58.570Z,3.41
2023-04-13T05:00:30.841Z,3.63
2023-04-13T05:03:03.353Z,3.87
2023-04-13T05:05:33.041Z,4.04
2023-04-13T05:08:01.134Z,4.30
2023-04-13T05:10:54.323Z,4.57
2023-04-13T05:16:21.958Z,5.36
2023-04-13T05:18:49.704Z,5.70
2023-04-13T05:21:20.365Z,6.02
2023-04-13T05:24:00.521Z,6.36
2023-04-13T05:26:29.184Z,6.78
2023-04-13T05:29:00.050Z,7.07
2023-04-13T05:31:28.071Z,7.41
2023-04-13T05:33:54.960Z,7.72
2023-04-13T05:36:22.564Z,8.08
2023-04-13T05:38:49.524Z,8.35
2023-04-13T05:41:16.312Z,8.65
2023-04-13T05:43:47.205Z,8.94
2023-04-13T05:46:14.054Z,9.20
2023-04-13T05:48:45.137Z,9.50
2023-04-13T05:51:35.788Z,9.86
2023-04-13T05:54:02.686Z,10.13
2023-04-13T05:56:34.599Z,10.40
2023-04-13T05:59:05.826Z,10.70
2023-04-13T06:01:32.810Z,10.82
2023-04-13T06:04:01.080Z,11.00
2023-04-13T06:06:31.144Z,11.29
2023-04-13T06:08:58.422Z,11.54
2023-04-13T06:11:26.587Z,11.64
2023-04-13T06:13:53.227Z,11.85
2023-04-13T06:16:20.550Z,12.07
2023-04-13T06:18:47.585Z,12.33
2023-04-13T06:21:14.439Z,12.62
2023-04-13T06:23:44.103Z,12.96
2023-04-13T06:26:10.854Z,13.33
2023-04-13T06:28:37.851Z,13.51
2023-04-13T06:31:05.225Z,13.67
2023-04-13T06:33:35.426Z,13.76
2023-04-13T06:36:02.602Z,13.80
2023-04-13T06:38:29.494Z,14.01
2023-04-13T06:41:04.696Z,13.98
2023-04-13T06:43:31.687Z,14.04
2023-04-13T06:46:00.283Z,14.43
2023-04-13T06:48:27.467Z,14.34
2023-04-13T06:50:59.358Z,14.51
2023-04-13T06:53:26.186Z,14.84
2023-04-13T06:55:53.199Z,15.09
2023-04-13T06:58:22.222Z,15.17
2023-04-13T07:00:49.863Z,15.23
2023-04-13T07:03:16.897Z,15.55
2023-04-13T07:05:45.212Z,15.65
2023-04-13T07:08:13.126Z,15.84
2023-04-13T07:10:41.230Z,16.12
2023-04-13T07:13:08.808Z,16.34
2023-04-13T07:15:38.747Z,16.63
2023-04-13T07:18:07.741Z,16.78
2023-04-13T07:20:35.945Z,16.74
2023-04-13T07:23:03.208Z,16.73
2023-04-13T07:25:30.646Z,16.78
2023-04-13T07:27:58.020Z,16.69
2023-04-13T07:30:25.452Z,16.49
2023-04-13T07:32:53.008Z,16.77
2023-04-13T07:35:19.939Z,16.98
2023-04-13T07:37:47.261Z,17.18
2023-04-13T07:40:17.189Z,17.46
2023-04-13T07:42:45.514Z,17.57
2023-04-13T07:45:12.567Z,17.59
2023-04-13T07:47:39.365Z,17.65
2023-04-13T07:50:07.416Z,17.73
2023-04-13T07:52:37.736Z,17.65
2023-04-13T07:55:05.277Z,17.78
2023-04-13T07:57:32.745Z,17.90
2023-04-13T08:00:00.703Z,17.95
2023-04-13T08:02:38.581Z,18.08
2023-04-13T08:05:16.705Z,18.33
2023-04-13T08:07:47.047Z,18.52
2023-04-13T08:10:26.500Z,18.55
2023-04-13T08:12:57.262Z,18.64
2023-04-13T08:15:38.125Z,18.76
2023-04-13T08:18:12.315Z,18.55
2023-04-13T08:20:51.016Z,18.71
2023-04-13T08:23:25.450Z,18.63
2023-04-13T08:25:53.024Z,18.81
2023-04-13T08:28:32.459Z,18.82
2023-04-13T08:31:35.335Z,18.87
2023-04-13T08:34:04.075Z,18.93
2023-04-13T08:39:29.460Z,19.36
2023-04-13T08:42:10.718Z,19.51
2023-04-13T08:44:56.583Z,19.62
2023-04-13T08:48:04.025Z,19.46
2023-04-13T08:50:44.118Z,19.44
2023-04-13T08:53:15.820Z,19.69
2023-04-13T08:55:46.870Z,19.94
2023-04-13T08:58:21.315Z,19.75
2023-04-13T09:00:52.977Z,19.81
2023-04-13T09:03:26.081Z,19.73
2023-04-13T09:06:14.245Z,19.86
2023-04-13T09:08:47.671Z,20.04
2023-04-13T09:11:17.364Z,19.88
2023-04-13T09:13:51.084Z,19.94
2023-04-13T09:16:45.348Z,20.04
2023-04-13T09:19:14.471Z,19.97
2023-04-13T09:21:44.805Z,19.95
2023-04-13T09:24:22.260Z,19.91
2023-04-13T09:26:52.563Z,19.85
2023-04-13T09:29:25.153Z,20.00
2023-04-13T09:31:55.585Z,20.09
2023-04-13T09:34:29.853Z,19.99
2023-04-13T09:37:00.161Z,19.91
2023-04-13T09:39:29.485Z,20.07
2023-04-13T09:41:58.448Z,20.15
2023-04-13T09:44:37.301Z,20.28
2023-04-13T09:47:08.558Z,20.43
2023-04-13T09:49:46.751Z,20.43
2023-04-13T09:52:24.701Z,20.50
2023-04-13T09:54:57.523Z,20.33
2023-04-13T09:57:32.441Z,20.36
2023-04-13T10:00:10.469Z,20.58
2023-04-13T10:02:39.767Z,20.59
2023-04-13T10:05:10.841Z,20.61
2023-04-13T10:07:38.483Z,20.79
2023-04-13T10:10:05.971Z,20.74
2023-04-13T10:12:43.513Z,20.65
2023-04-13T10:16:00.551Z,20.76
2023-04-13T10:19:02.220Z,20.73
2023-04-13T10:21:41.058Z,20.80
2023-04-13T10:24:12.709Z,20.91
2023-04-13T10:26:41.969Z,20.97
2023-04-13T10:29:10.385Z,21.03
2023-04-13T10:31:48.321Z,20.99
2023-04-13T10:34:29.545Z,21.12
2023-04-13T10:37:04.175Z,20.97
2023-04-13T10:39:33.936Z,20.67
2023-04-13T10:42:06.744Z,20.74
2023-04-13T10:44:46.510Z,20.72
2023-04-13T10:47:17.559Z,20.66
2023-04-13T10:49:48.770Z,20.83
2023-04-13T10:52:22.361Z,20.82
2023-04-13T10:54:50.418Z,20.82
2023-04-13T10:57:18.219Z,20.67
2023-04-13T10:59:59.224Z,20.80
2023-04-13T11:02:32.939Z,20.54
2023-04-13T11:05:01.361Z,20.95
2023-04-13T11:07:30.474Z,21.08
2023-04-13T11:10:03.239Z,21.16
2023-04-13T11:12:30.735Z,21.19
2023-04-13T11:15:00.770Z,20.97
2023-04-13T11:17:28.001Z,20.90
2023-04-13T11:19:57.201Z,21.02
2023-04-13T11:22:28.157Z,21.09
2023-04-13T11:25:07.137Z,21.19
2023-04-13T11:27:34.234Z,21.40
2023-04-13T11:30:09.715Z,21.48
2023-04-13T11:32:41.868Z,21.46
2023-04-13T11:35:10.847Z,21.51
2023-04-13T11:37:48.820Z,21.63
2023-04-13T11:40:21.662Z,21.79
2023-04-13T11:42:50.765Z,21.81
2023-04-13T11:45:20.465Z,21.92
2023-04-13T11:47:51.017Z,21.78
2023-04-13T11:50:19.265Z,21.92
2023-04-13T11:52:47.870Z,21.92
2023-04-13T11:55:23.358Z,21.37
2023-04-13T11:57:52.984Z,21.17
2023-04-13T12:00:26.662Z,21.31
2023-04-13T12:05:32.771Z,21.29
2023-04-13T12:08:03.092Z,21.38
2023-04-13T12:15:58.129Z,21.73
2023-04-13T12:18:37.238Z,21.46
2023-04-13T12:21:05.881Z,21.57
2023-04-13T12:23:33.138Z,21.55
2023-04-13T12:26:33.164Z,21.65
2023-04-13T12:28:57.156Z,21.76
2023-04-13T12:31:24.685Z,21.94
2023-04-13T12:33:51.787Z,22.07
2023-04-13T12:36:19.048Z,22.05
2023-04-13T12:38:46.172Z,22.07
2023-04-13T12:41:13.314Z,22.06
2023-04-13T12:43:40.152Z,21.88
2023-04-13T12:46:07.406Z,21.80
2023-04-13T12:48:34.560Z,21.77
2023-04-13T12:51:01.373Z,21.69
2023-04-13T12:53:28.487Z,21.77
2023-04-13T12:55:55.372Z,21.80
2023-04-13T12:58:22.250Z,21.94
2023-04-13T13:00:49.401Z,22.04
2023-04-13T13:03:16.628Z,21.88
2023-04-13T13:05:43.694Z,21.72
2023-04-13T13:08:11.232Z,21.79
2023-04-13T13:10:38.093Z,21.78
2023-04-13T13:13:06.381Z,21.50
2023-04-13T13:15:36.256Z,21.59
2023-04-13T13:18:04.195Z,21.63
2023-04-13T13:20:31.050Z,21.62
2023-04-13T13:22:58.196Z,21.62
2023-04-13T13:25:25.424Z,21.46
2023-04-13T13:30:22.511Z,21.57
2023-04-13T13:32:52.239Z,21.50
2023-04-13T13:35:19.368Z,21.42
2023-04-13T13:37:46.694Z,21.42
2023-04-13T13:40:14.251Z,21.17
2023-04-13T13:42:51.202Z,21.12
2023-04-13T13:45:19.142Z,21.26
2023-04-13T13:47:56.153Z,21.22
2023-04-13T13:51:00.473Z,20.86
2023-04-13T13:53:28.660Z,20.87
2023-04-13T13:59:02.644Z,21.04
2023-04-13T14:01:32.496Z,20.99
2023-04-13T14:04:00.663Z,20.84
2023-04-13T14:06:44.156Z,20.87
2023-04-13T14:12:42.534Z,21.03
2023-04-13T14:16:13.205Z,21.13
2023-04-13T14:22:13.242Z,21.23
2023-04-13T14:25:11.914Z,21.39
2023-04-13T14:28:00.033Z,21.77
2023-04-13T14:30:43.874Z,21.89
2023-04-13T14:35:58.405Z,22.07
2023-04-13T14:38:29.950Z,22.12
2023-04-13T14:40:56.755Z,22.21
2023-04-13T14:43:28.195Z,22.22
2023-04-13T14:45:55.377Z,22.01
2023-04-13T14:48:25.252Z,22.05
2023-04-13T14:51:32.468Z,21.97
2023-04-13T14:54:07.855Z,21.90
2023-04-13T14:57:06.252Z,21.87
2023-04-13T15:00:03.014Z,21.75
2023-04-13T15:02:41.758Z,21.49
2023-04-13T15:08:16.947Z,21.28
2023-04-13T15:10:46.920Z,21.49
2023-04-13T15:13:23.280Z,21.56
2023-04-13T15:15:59.943Z,21.75
2023-04-13T15:18:33.603Z,21.90
2023-04-13T15:21:08.443Z,21.90
2023-04-13T15:23:37.110Z,21.98
2023-04-13T15:26:25.215Z,21.91
2023-04-13T15:28:56.293Z,21.92
2023-04-13T15:31:25.319Z,21.82
2023-04-13T15:34:00.251Z,21.98
2023-04-13T15:36:31.022Z,22.35
2023-04-13T15:39:09.703Z,22.11
2023-04-13T15:42:11.101Z,21.72
2023-04-13T15:44:58.709Z,21.28
2023-04-13T15:47:38.944Z,21.35
2023-04-13T15:50:10.346Z,21.32
2023-04-13T15:52:44.181Z,20.79
2023-04-13T15:55:34.792Z,20.31
2023-04-13T15:58:31.680Z,19.73
2023-04-13T16:01:04.525Z,19.45
2023-04-13T16:03:33.620Z,19.10
2023-04-13T16:06:04.880Z,18.91
2023-04-13T16:08:32.177Z,18.73
2023-04-13T16:11:02.670Z,18.59
2023-04-13T16:13:48.202Z,18.46
2023-04-13T16:16:20.274Z,18.31
2023-04-13T16:18:47.648Z,18.14
2023-04-13T16:21:19.251Z,18.05
2023-04-13T16:23:46.644Z,17.95
2023-04-13T16:26:13.507Z,17.86
2023-04-13T16:28:40.897Z,17.77
2023-04-13T16:31:16.898Z,17.68
2023-04-13T16:33:45.447Z,17.52
2023-04-13T16:36:12.612Z,17.34
2023-04-13T16:38:41.650Z,17.10
2023-04-13T16:41:08.476Z,16.96
2023-04-13T16:43:35.498Z,16.82
2023-04-13T16:46:02.314Z,16.68
2023-04-13T16:48:30.052Z,16.49
2023-04-13T16:51:03.922Z,16.21
2023-04-13T16:53:32.657Z,16.04
2023-04-13T16:55:59.584Z,15.89
2023-04-13T16:58:26.965Z,15.73
2023-04-13T17:00:54.158Z,15.53
2023-04-13T17:03:21.206Z,15.50
2023-04-13T17:05:51.520Z,15.25
2023-04-13T17:08:37.985Z,15.00
2023-04-13T17:11:07.953Z,14.71
2023-04-13T17:13:36.700Z,14.58
2023-04-13T17:16:08.698Z,14.44
2023-04-13T17:18:41.194Z,14.21
2023-04-13T17:21:08.320Z,14.15
2023-04-13T17:23:40.979Z,14.05
2023-04-13T17:26:08.728Z,13.90
2023-04-13T17:28:41.655Z,13.62
2023-04-13T17:31:09.900Z,13.48
2023-04-13T17:33:53.139Z,13.31
2023-04-13T17:36:23.313Z,13.13
2023-04-13T17:38:53.567Z,12.96
2023-04-13T17:41:24.395Z,12.84
2023-04-13T17:44:02.627Z,12.71
2023-04-13T17:46:31.113Z,12.61
2023-04-13T17:49:05.696Z,12.39
2023-04-13T17:51:36.352Z,12.28
2023-04-13T17:54:09.849Z,12.18
2023-04-13T17:56:39.907Z,12.13
2023-04-13T17:59:10.750Z,12.07
2023-04-13T18:01:45.554Z,11.87
2023-04-13T18:04:38.675Z,11.70
2023-04-13T18:07:06.822Z,11.76
2023-04-13T18:09:57.949Z,11.67
2023-04-13T18:12:26.416Z,11.49
2023-04-13T18:14:54.491Z,11.55
2023-04-13T18:17:22.076Z,11.47
2023-04-13T18:19:53.734Z,11.30
2023-04-13T18:22:21.179Z,11.24
2023-04-13T18:24:49.277Z,11.12
2023-04-13T18:27:16.688Z,10.98
2023-04-13T18:29:50.555Z,10.90
2023-04-13T18:32:20.526Z,10.89
2023-04-13T18:34:47.618Z,10.83
2023-04-13T18:37:15.029Z,10.87
2023-04-13T18:39:42.428Z,10.77
2023-04-13T18:42:09.537Z,10.75
2023-04-13T18:44:46.344Z,10.73
2023-04-13T18:47:24.963Z,10.48
2023-04-13T18:49:57.235Z,10.49
2023-04-13T18:52:27.240Z,10.43
2023-04-13T18:54:54.637Z,10.39
2023-04-13T18:57:25.255Z,10.34
2023-04-13T18:59:52.620Z,10.22
2023-04-13T19:02:22.461Z,10.20
2023-04-13T19:04:51.088Z,10.24
2023-04-13T19:07:37.289Z,10.14
2023-04-13T19:10:05.206Z,10.09
2023-04-13T19:12:32.244Z,10.06
2023-04-13T19:14:59.798Z,9.99
2023-04-13T19:17:44.244Z,10.00
2023-04-13T19:20:15.833Z,9.97
2023-04-13T19:22:49.334Z,9.85
2023-04-13T19:25:18.432Z,9.93
2023-04-13T19:27:46.907Z,9.86
2023-04-13T19:30:31.587Z,9.71
2023-04-13T19:33:01.366Z,9.68
2023-04-13T19:38:34.346Z,9.59
2023-04-13T19:42:00.827Z,9.45
2023-04-13T19:44:57.718Z,9.32
2023-04-13T19:47:39.816Z,9.31
2023-04-13T19:50:10.577Z,9.24
2023-04-13T19:52:38.827Z,9.20
2023-04-13T19:57:51.421Z,9.26
2023-04-13T20:01:00.817Z,9.14
2023-04-13T20:04:13.307Z,9.17
2023-04-13T20:14:46.003Z,9.06
2023-04-13T20:21:10.736Z,8.88
2023-04-13T20:27:15.975Z,8.80
2023-04-13T20:36:25.882Z,8.62
2023-04-13T20:39:04.814Z,8.64
2023-04-13T20:41:48.541Z,8.60
2023-04-13T20:44:24.069Z,8.57
2023-04-13T20:46:55.303Z,8.56
2023-04-13T20:49:31.947Z,8.53
2023-04-13T20:52:09.757Z,8.57
2023-04-13T20:57:53.661Z,8.42
2023-04-13T21:00:29.089Z,8.52
2023-04-13T21:02:59.009Z,8.39
2023-04-13T21:06:17.572Z,8.28
2023-04-13T21:08:59.357Z,8.29
2023-04-13T21:12:08.551Z,8.22
2023-04-13T21:14:47.641Z,8.29
2023-04-13T21:17:24.547Z,8.13
2023-04-13T21:19:57.767Z,8.12
2023-04-13T21:22:43.653Z,8.08
2023-04-13T21:26:14.861Z,8.01
2023-04-13T21:28:46.206Z,7.93
2023-04-13T21:34:50.005Z,7.90
2023-04-13T21:39:20.271Z,7.79
2023-04-13T21:41:07.020Z,7.74
2023-04-13T21:43:39.324Z,7.79
2023-04-13T21:53:04.779Z,7.69
2023-04-13T21:56:36.708Z,7.68
2023-04-13T22:02:48.937Z,7.66
2023-04-13T22:05:03.048Z,7.61
2023-04-13T22:08:48.119Z,7.65
2023-04-13T22:11:33.920Z,7.67
2023-04-13T22:14:05.306Z,7.63
2023-04-13T22:17:22.342Z,7.64
2023-04-13T22:23:26.163Z,7.52
2023-04-13T22:28:54.553Z,7.54
2023-04-13T22:34:39.315Z,7.53
2023-04-13T22:34:59.272Z,7.55
2023-04-13T22:37:24.917Z,7.48
2023-04-13T22:40:12.317Z,7.41
2023-04-13T22:43:03.390Z,7.37
2023-04-13T22:48:58.353Z,7.39
2023-04-13T22:52:31.643Z,7.39
2023-04-13T22:58:39.081Z,7.35
2023-04-13T23:01:08.394Z,7.38
2023-04-13T23:04:13.330Z,7.34
2023-04-13T23:07:24.659Z,7.31
2023-04-13T23:10:21.025Z,7.13
2023-04-13T23:13:37.901Z,7.12
2023-04-13T23:16:29.105Z,7.03
2023-04-13T23:19:47.289Z,7.02
2023-04-13T23:25:17.898Z,6.99
2023-04-13T23:28:42.073Z,6.96
2023-04-13T23:31:25.722Z,6.90
2023-04-13T23:33:56.890Z,6.83
2023-04-13T23:36:48.667Z,6.80
2023-04-13T23:39:40.962Z,6.81
2023-04-13T23:42:18.079Z,6.71
2023-04-13T23:48:20.397Z,6.64
2023-04-13T23:50:49.109Z,6.65
2023-04-13T23:53:22.573Z,6.57
2023-04-13T23:56:08.650Z,6.45
2023-04-13T23:58:44.622Z,6.41
